createdAt,value
2018-06-22T00:00:18.456Z,6.53
2018-06-22T00:02:44.860Z,6.40
2018-06-22T00:05:11.196Z,6.33
2018-06-22T00:07:37.571Z,5.63
2018-06-22T00:10:03.958Z,6.33
2018-06-22T00:12:30.302Z,6.63
2018-06-22T00:14:56.683Z,6.43
2018-06-22T00:17:22.989Z,6.80
2018-06-22T00:19:49.355Z,6.50
2018-06-22T00:22:15.675Z,6.17
2018-06-22T00:24:41.991Z,6.23
2018-06-22T00:27:08.312Z,6.70
2018-06-22T00:29:34.635Z,6.47
2018-06-22T00:32:00.979Z,6.60
2018-06-22T00:34:27.356Z,6.40
2018-06-22T00:36:53.780Z,6.00
2018-06-22T00:39:20.119Z,6.87
2018-06-22T00:41:46.443Z,6.63
2018-06-22T00:44:12.831Z,5.83
2018-06-22T00:46:39.264Z,6.10
2018-06-22T00:49:05.643Z,6.03
2018-06-22T00:51:31.976Z,6.50
2018-06-22T00:53:58.453Z,6.23
2018-06-22T00:56:24.848Z,6.00
2018-06-22T00:58:51.231Z,6.87
2018-06-22T01:01:17.759Z,6.23
2018-06-22T01:03:44.156Z,6.33
2018-06-22T01:06:10.478Z,5.63
2018-06-22T01:08:36.821Z,5.47
2018-06-22T01:11:03.314Z,6.47
2018-06-22T01:13:29.642Z,5.23
2018-06-22T01:15:56.043Z,5.60
2018-06-22T01:18:22.355Z,6.00
2018-06-22T01:20:48.883Z,5.70
2018-06-22T01:23:15.289Z,6.10
2018-06-22T01:25:41.613Z,5.20
2018-06-22T01:28:07.923Z,6.03
2018-06-22T01:30:34.348Z,5.37
2018-06-22T01:33:00.927Z,5.47
2018-06-22T01:35:27.291Z,4.80
2018-06-22T01:37:53.651Z,4.57
2018-06-22T01:40:20.180Z,5.23
2018-06-22T01:42:46.676Z,5.03
2018-06-22T01:45:13.055Z,4.60
2018-06-22T01:47:39.435Z,5.07
2018-06-22T01:50:05.777Z,4.50
2018-06-22T01:52:32.108Z,4.53
2018-06-22T01:54:58.590Z,5.20
2018-06-22T01:57:25.201Z,4.50
2018-06-22T01:59:51.588Z,4.73
2018-06-22T02:02:17.925Z,4.90
2018-06-22T02:04:44.287Z,4.87
2018-06-22T02:07:10.774Z,4.70
2018-06-22T02:09:37.159Z,5.10
2018-06-22T02:12:03.497Z,4.67
2018-06-22T02:14:29.860Z,4.20
2018-06-22T02:16:56.294Z,4.80
2018-06-22T02:19:22.615Z,4.63
2018-06-22T02:21:49.001Z,4.80
2018-06-22T02:24:15.379Z,4.50
2018-06-22T02:26:41.828Z,4.17
2018-06-22T02:29:08.185Z,4.60
2018-06-22T02:31:34.544Z,4.37
2018-06-22T02:34:00.939Z,4.50
2018-06-22T02:36:27.259Z,4.50
2018-06-22T02:38:53.627Z,4.50
2018-06-22T02:41:19.932Z,4.20
2018-06-22T02:43:46.346Z,4.33
2018-06-22T02:46:12.707Z,4.10
2018-06-22T02:48:39.084Z,4.27
2018-06-22T02:51:05.400Z,4.57
2018-06-22T02:53:31.723Z,4.53
2018-06-22T02:55:58.075Z,4.43
2018-06-22T02:58:24.421Z,4.60
2018-06-22T03:00:50.736Z,4.23
2018-06-22T03:03:17.051Z,4.23
2018-06-22T03:05:43.416Z,4.53
2018-06-22T03:08:09.919Z,4.70
2018-06-22T03:10:36.272Z,4.20
2018-06-22T03:13:02.662Z,4.53
2018-06-22T03:15:29.019Z,4.37
2018-06-22T03:17:55.379Z,4.27
2018-06-22T03:20:21.699Z,4.00
2018-06-22T03:22:48.024Z,4.10
2018-06-22T03:25:14.426Z,4.00
2018-06-22T03:27:40.904Z,4.07
2018-06-22T03:30:07.361Z,3.97
2018-06-22T03:32:33.828Z,4.20
2018-06-22T03:35:00.154Z,4.13
2018-06-22T03:37:26.480Z,4.27
2018-06-22T03:39:52.964Z,4.40
2018-06-22T03:42:19.300Z,4.53
2018-06-22T03:44:45.735Z,4.77
2018-06-22T03:47:12.099Z,4.13
2018-06-22T03:49:38.420Z,4.20
2018-06-22T03:52:04.788Z,5.17
2018-06-22T03:54:31.354Z,4.40
2018-06-22T03:56:57.716Z,4.43
2018-06-22T03:59:24.230Z,4.10
2018-06-22T04:01:50.604Z,4.60
2018-06-22T04:04:17.005Z,4.00
2018-06-22T04:06:43.376Z,4.30
2018-06-22T04:09:09.761Z,3.93
2018-06-22T04:11:36.097Z,4.10
2018-06-22T04:14:02.408Z,4.13
2018-06-22T04:16:28.866Z,3.83
2018-06-22T04:18:55.220Z,4.00
2018-06-22T04:21:21.600Z,3.67
2018-06-22T04:23:47.953Z,4.10
2018-06-22T04:26:14.336Z,3.87
2018-06-22T04:28:40.785Z,4.20
2018-06-22T04:31:07.169Z,3.90
2018-06-22T04:33:33.509Z,4.17
2018-06-22T04:35:59.893Z,4.13
2018-06-22T04:38:26.280Z,4.07
2018-06-22T04:40:52.640Z,4.10
2018-06-22T04:43:19.046Z,4.13
2018-06-22T04:45:45.430Z,3.90
2018-06-22T04:48:11.964Z,3.97
2018-06-22T04:50:38.299Z,4.60
2018-06-22T04:53:04.650Z,4.03
2018-06-22T04:55:31.029Z,4.57
2018-06-22T04:57:57.395Z,4.40
2018-06-22T05:00:23.744Z,4.67
2018-06-22T05:02:50.091Z,4.70
2018-06-22T05:05:16.578Z,4.40
2018-06-22T05:07:42.902Z,4.17
2018-06-22T05:10:09.310Z,4.40
2018-06-22T05:12:35.686Z,4.17
2018-06-22T05:15:02.068Z,4.73
2018-06-22T05:17:28.409Z,4.40
2018-06-22T05:19:54.756Z,4.50
2018-06-22T05:22:21.141Z,5.10
2018-06-22T05:24:47.477Z,4.10
2018-06-22T05:27:13.823Z,4.70
2018-06-22T05:29:40.205Z,4.50
2018-06-22T05:32:06.613Z,4.20
2018-06-22T05:34:33.205Z,4.60
2018-06-22T05:36:59.609Z,4.40
2018-06-22T05:39:25.950Z,5.10
2018-06-22T05:41:52.295Z,4.50
2018-06-22T05:44:18.770Z,4.03
2018-06-22T05:46:45.128Z,4.40
2018-06-22T05:49:11.508Z,5.33
2018-06-22T05:51:37.835Z,4.37
2018-06-22T05:54:04.313Z,4.30
2018-06-22T05:56:30.716Z,4.10
2018-06-22T05:58:57.099Z,4.70
2018-06-22T06:01:23.508Z,4.73
2018-06-22T06:03:49.852Z,4.90
2018-06-22T06:06:16.175Z,4.60
2018-06-22T06:08:42.668Z,5.40
2018-06-22T06:11:09.265Z,5.37
2018-06-22T06:13:35.685Z,5.40
2018-06-22T06:16:02.085Z,4.27
2018-06-22T06:18:28.871Z,4.60
2018-06-22T06:20:55.809Z,5.10
2018-06-22T06:23:22.284Z,5.30
2018-06-22T06:25:48.628Z,4.70
2018-06-22T06:28:15.026Z,4.47
2018-06-22T06:30:41.504Z,4.30
2018-06-22T06:33:07.959Z,4.97
2018-06-22T06:35:34.405Z,4.90
2018-06-22T06:38:00.872Z,4.50
2018-06-22T06:40:27.512Z,5.80
2018-06-22T06:42:54.000Z,6.77
2018-06-22T06:45:20.393Z,5.00
2018-06-22T06:47:46.728Z,5.37
2018-06-22T06:50:13.148Z,4.93
2018-06-22T06:52:39.543Z,4.07
2018-06-22T06:55:06.032Z,4.93
2018-06-22T06:57:32.388Z,4.97
2018-06-22T06:59:58.793Z,5.20
2018-06-22T07:02:25.200Z,5.50
2018-06-22T07:04:51.567Z,4.90
2018-06-22T07:07:17.935Z,5.47
2018-06-22T07:09:44.322Z,5.40
2018-06-22T07:12:10.670Z,5.17
2018-06-22T07:14:37.146Z,5.20
2018-06-22T07:17:03.504Z,4.93
2018-06-22T07:19:29.924Z,5.20
2018-06-22T07:21:56.352Z,5.43
2018-06-22T07:24:22.704Z,6.43
2018-06-22T07:26:49.090Z,5.27
2018-06-22T07:29:15.417Z,5.40
2018-06-22T07:31:41.808Z,5.23
2018-06-22T07:34:08.291Z,5.17
2018-06-22T07:36:34.629Z,5.90
2018-06-22T07:39:01.089Z,5.60
2018-06-22T07:41:27.733Z,5.33
2018-06-22T07:43:54.638Z,5.73
2018-06-22T07:46:21.003Z,5.80
2018-06-22T07:48:47.481Z,5.83
2018-06-22T07:51:13.922Z,5.70
2018-06-22T07:53:40.348Z,5.40
2018-06-22T07:56:06.776Z,5.93
2018-06-22T07:58:33.129Z,6.17
2018-06-22T08:00:59.491Z,5.90
2018-06-22T08:03:25.952Z,5.60
2018-06-22T08:05:52.391Z,5.37
2018-06-22T08:08:18.840Z,5.60
2018-06-22T08:10:45.186Z,6.53
2018-06-22T08:13:11.705Z,6.47
2018-06-22T08:15:38.974Z,5.70
2018-06-22T08:18:05.408Z,6.23
2018-06-22T08:20:31.811Z,6.43
2018-06-22T08:22:58.291Z,5.90
2018-06-22T08:25:24.652Z,6.00
2018-06-22T08:27:51.012Z,6.57
2018-06-22T08:30:17.381Z,5.70
2018-06-22T08:32:43.828Z,6.60
2018-06-22T08:35:10.227Z,6.43
2018-06-22T08:37:36.588Z,6.00
2018-06-22T08:40:02.942Z,6.83
2018-06-22T08:42:29.406Z,6.30
2018-06-22T08:44:55.768Z,6.37
2018-06-22T08:47:22.130Z,6.00
2018-06-22T08:49:48.491Z,6.50
2018-06-22T08:52:14.961Z,7.03
2018-06-22T08:54:41.424Z,6.20
2018-06-22T08:57:07.825Z,6.87
2018-06-22T08:59:34.177Z,6.27
2018-06-22T09:02:00.579Z,6.50
2018-06-22T09:06:48.177Z,6.20
2018-06-22T09:09:14.617Z,6.90
2018-06-22T09:11:41.260Z,7.03
2018-06-22T09:14:07.640Z,6.37
2018-06-22T09:16:34.203Z,6.20
2018-06-22T09:19:00.924Z,7.40
2018-06-22T09:21:27.451Z,6.67
2018-06-22T09:23:54.018Z,7.13
2018-06-22T09:26:20.472Z,6.37
2018-06-22T09:28:46.924Z,6.57
2018-06-22T09:31:13.524Z,7.47
2018-06-22T09:33:40.134Z,5.90
2018-06-22T09:36:06.774Z,6.43
2018-06-22T09:38:33.437Z,6.77
2018-06-22T09:40:59.899Z,6.23
2018-06-22T09:43:26.354Z,6.60
2018-06-22T09:45:52.929Z,5.80
2018-06-22T09:48:19.384Z,6.70
2018-06-22T09:50:45.828Z,6.53
2018-06-22T09:53:12.302Z,6.40
2018-06-22T09:55:38.673Z,7.50
2018-06-22T09:58:05.218Z,6.87
2018-06-22T10:00:31.594Z,6.07
2018-06-22T10:02:58.039Z,6.40
2018-06-22T10:05:24.405Z,6.40
2018-06-22T10:07:50.840Z,6.77
2018-06-22T10:10:17.250Z,7.47
2018-06-22T10:12:43.720Z,6.43
2018-06-22T10:15:10.194Z,5.80
2018-06-22T10:17:36.635Z,6.40
2018-06-22T10:20:03.099Z,6.50
2018-06-22T10:22:29.572Z,6.23
2018-06-22T10:24:56.126Z,6.43
2018-06-22T10:27:22.899Z,6.17
2018-06-22T10:29:49.371Z,6.10
2018-06-22T10:32:15.933Z,6.43
2018-06-22T10:34:42.682Z,5.87
2018-06-22T10:37:09.163Z,6.57
2018-06-22T10:39:39.017Z,5.57
2018-06-22T10:42:05.357Z,5.80
2018-06-22T10:44:31.856Z,6.17
2018-06-22T10:46:58.457Z,6.30
2018-06-22T10:52:07.446Z,6.20
2018-06-22T10:54:38.784Z,6.20
2018-06-22T10:57:06.581Z,6.27
2018-06-22T11:04:48.851Z,6.70
2018-06-22T11:07:16.098Z,6.53
2018-06-22T11:09:48.923Z,6.53
2018-06-22T11:12:17.676Z,6.00
2018-06-22T11:14:46.031Z,6.70
2018-06-22T11:17:13.573Z,6.10
2018-06-22T11:22:17.864Z,6.63
2018-06-22T11:24:51.326Z,5.80
2018-06-22T11:27:17.953Z,5.90
2018-06-22T11:29:44.784Z,6.83
2018-06-22T11:32:19.543Z,5.90
2018-06-22T11:34:47.090Z,6.27
2018-06-22T11:37:14.357Z,6.57
2018-06-22T11:39:45.535Z,6.53
2018-06-22T11:42:12.132Z,6.10
2018-06-22T11:44:42.213Z,7.10
2018-06-22T11:47:11.931Z,6.40
2018-06-22T11:49:41.597Z,7.40
2018-06-22T11:52:12.145Z,7.17
2018-06-22T11:57:13.334Z,6.33
2018-06-22T11:59:42.440Z,6.33
2018-06-22T12:02:13.218Z,7.07
2018-06-22T12:04:43.942Z,6.90
2018-06-22T12:07:15.581Z,6.37
2018-06-22T12:12:41.242Z,6.90
2018-06-22T12:15:13.197Z,7.17
2018-06-22T12:17:40.624Z,7.10
2018-06-22T12:22:42.524Z,6.70
2018-06-22T12:25:09.546Z,6.47
2018-06-22T12:27:38.320Z,6.17
2018-06-22T12:30:08.240Z,5.80
2018-06-22T12:35:13.907Z,5.90
2018-06-22T12:37:46.122Z,6.00
2018-06-22T12:40:26.006Z,6.03
2018-06-22T12:42:55.807Z,5.87
2018-06-22T12:45:22.592Z,6.00
2018-06-22T12:47:50.935Z,6.27
2018-06-22T12:50:18.296Z,5.73
2018-06-22T12:52:45.292Z,6.20
2018-06-22T12:55:13.086Z,6.53
2018-06-22T12:57:39.982Z,6.30
2018-06-22T13:03:37.292Z,5.27
2018-06-22T13:06:06.129Z,6.30
2018-06-22T13:08:32.670Z,6.07
2018-06-22T13:10:59.240Z,5.80
2018-06-22T13:13:25.708Z,5.90
2018-06-22T13:15:55.358Z,5.40
2018-06-22T13:18:21.766Z,6.37
2018-06-22T13:20:48.244Z,5.33
2018-06-22T13:23:16.347Z,5.40
2018-06-22T13:25:43.155Z,5.23
2018-06-22T13:28:09.783Z,5.40
2018-06-22T13:30:36.732Z,4.93
2018-06-22T13:33:03.317Z,5.03
2018-06-22T13:35:30.834Z,6.20
2018-06-22T13:37:57.594Z,4.83
2018-06-22T13:40:23.967Z,4.73
2018-06-22T13:42:50.618Z,5.33
2018-06-22T13:45:17.102Z,5.77
2018-06-22T13:47:43.584Z,5.10
2018-06-22T13:50:10.011Z,5.20
2018-06-22T13:52:37.857Z,5.87
2018-06-22T13:55:04.355Z,5.30
2018-06-22T13:57:30.726Z,5.43
2018-06-22T13:59:57.116Z,5.30
2018-06-22T14:02:23.592Z,5.23
2018-06-22T14:04:49.944Z,5.33
2018-06-22T14:07:16.286Z,6.00
2018-06-22T14:09:43.299Z,5.50
2018-06-22T14:12:09.748Z,5.60
2018-06-22T14:14:36.298Z,6.53
2018-06-22T14:17:03.029Z,5.83
2018-06-22T14:19:29.407Z,6.50
2018-06-22T14:21:56.747Z,5.87
2018-06-22T14:24:23.167Z,7.00
2018-06-22T14:26:49.508Z,6.53
2018-06-22T14:29:16.004Z,6.00
2018-06-22T14:31:42.412Z,5.40
2018-06-22T14:34:08.877Z,6.10
2018-06-22T14:36:35.506Z,5.83
2018-06-22T14:39:02.180Z,6.10
2018-06-22T14:41:28.574Z,6.03
2018-06-22T14:43:54.943Z,6.40
2018-06-22T14:46:21.396Z,6.40
2018-06-22T14:48:47.784Z,6.73
2018-06-22T14:51:14.165Z,6.60
2018-06-22T14:53:40.531Z,5.57
2018-06-22T14:56:06.951Z,5.63
2018-06-22T14:58:33.385Z,5.70
2018-06-22T15:00:59.772Z,5.50
2018-06-22T15:03:26.200Z,5.80
2018-06-22T15:05:52.611Z,5.87
2018-06-22T15:08:18.935Z,6.60
2018-06-22T15:10:45.287Z,4.90
2018-06-22T15:13:12.168Z,5.30
2018-06-22T15:15:38.622Z,5.80
2018-06-22T15:18:05.162Z,5.87
2018-06-22T15:20:31.586Z,5.50
2018-06-22T15:22:57.970Z,5.70
2018-06-22T15:25:24.298Z,5.93
2018-06-22T15:27:50.703Z,5.90
2018-06-22T15:30:17.046Z,5.17
2018-06-22T15:32:43.371Z,6.80
2018-06-22T15:35:09.729Z,6.50
2018-06-22T15:37:36.138Z,7.30
2018-06-22T15:40:02.562Z,7.07
2018-06-22T15:42:28.921Z,6.90
2018-06-22T15:44:55.301Z,6.20
2018-06-22T15:47:21.666Z,5.80
2018-06-22T15:49:47.996Z,6.10
2018-06-22T15:52:14.331Z,6.47
2018-06-22T15:54:40.703Z,6.00
2018-06-22T15:57:07.097Z,5.40
2018-06-22T15:59:33.446Z,5.57
2018-06-22T16:01:59.842Z,5.57
2018-06-22T16:04:26.215Z,5.20
2018-06-22T16:06:52.578Z,5.63
2018-06-22T16:09:18.940Z,5.80
2018-06-22T16:11:45.277Z,5.33
2018-06-22T16:14:11.657Z,6.03
2018-06-22T16:16:37.982Z,5.10
2018-06-22T16:19:04.431Z,5.40
2018-06-22T16:21:30.902Z,5.13
2018-06-22T16:23:57.319Z,4.70
2018-06-22T16:26:23.676Z,5.23
2018-06-22T16:28:50.011Z,4.60
2018-06-22T16:31:16.382Z,5.27
2018-06-22T16:33:42.745Z,4.60
2018-06-22T16:36:09.121Z,5.03
2018-06-22T16:38:35.558Z,5.20
2018-06-22T16:41:01.931Z,4.50
2018-06-22T16:43:28.277Z,4.60
2018-06-22T16:45:54.641Z,5.03
2018-06-22T16:48:21.055Z,5.13
2018-06-22T16:50:47.485Z,5.10
2018-06-22T16:53:13.836Z,4.77
2018-06-22T16:55:40.163Z,5.10
2018-06-22T16:58:06.539Z,5.00
2018-06-22T17:00:32.965Z,4.30
2018-06-22T17:02:59.303Z,5.07
2018-06-22T17:05:25.692Z,4.60
2018-06-22T17:07:52.032Z,4.93
2018-06-22T17:10:18.460Z,4.50
2018-06-22T17:12:44.856Z,5.30
2018-06-22T17:15:11.175Z,4.93
2018-06-22T17:17:37.502Z,5.23
2018-06-22T17:20:03.875Z,5.73
2018-06-22T17:22:30.191Z,5.20
2018-06-22T17:24:56.524Z,5.37
2018-06-22T17:27:22.848Z,5.80
2018-06-22T17:29:49.167Z,5.93
2018-06-22T17:32:15.543Z,5.30
2018-06-22T17:34:41.879Z,5.60
2018-06-22T17:37:08.276Z,5.50
2018-06-22T17:39:34.615Z,6.10
2018-06-22T17:42:00.984Z,5.50
2018-06-22T17:44:27.317Z,5.83
2018-06-22T17:46:53.642Z,5.97
2018-06-22T17:49:19.974Z,5.40
2018-06-22T17:51:46.315Z,5.67
2018-06-22T17:54:12.675Z,4.90
2018-06-22T17:56:39.005Z,5.27
2018-06-22T17:59:05.397Z,5.10
2018-06-22T18:01:31.723Z,6.17
2018-06-22T18:03:58.057Z,6.10
2018-06-22T18:06:24.433Z,6.27
2018-06-22T18:08:50.765Z,5.53
2018-06-22T18:11:17.186Z,5.10
2018-06-22T18:13:43.511Z,6.03
2018-06-22T18:16:09.894Z,6.53
2018-06-22T18:18:36.264Z,5.57
2018-06-22T18:21:02.580Z,5.97
2018-06-22T18:23:28.909Z,6.60
2018-06-22T18:25:55.404Z,5.87
2018-06-22T18:28:21.725Z,6.00
2018-06-22T18:30:48.055Z,5.80
2018-06-22T18:33:14.435Z,6.30
2018-06-22T18:35:40.795Z,5.80
2018-06-22T18:38:07.116Z,6.10
2018-06-22T18:40:33.447Z,5.40
2018-06-22T18:42:59.764Z,5.70
2018-06-22T18:45:26.127Z,6.27
2018-06-22T18:47:52.472Z,5.47
2018-06-22T18:50:18.854Z,6.20
2018-06-22T18:52:45.221Z,5.80
2018-06-22T18:55:11.551Z,5.50
2018-06-22T18:57:37.988Z,6.40
2018-06-22T19:00:04.358Z,5.80
2018-06-22T19:02:30.693Z,5.43
2018-06-22T19:04:57.008Z,6.00
2018-06-22T19:07:23.409Z,6.30
2018-06-22T19:09:49.809Z,5.50
2018-06-22T19:12:16.161Z,5.80
2018-06-22T19:14:42.489Z,6.20
2018-06-22T19:17:08.865Z,6.17
2018-06-22T19:19:35.859Z,5.60
2018-06-22T19:22:02.184Z,5.83
2018-06-22T19:24:28.549Z,6.50
2018-06-22T19:26:54.876Z,6.20
2018-06-22T19:29:21.253Z,5.83
2018-06-22T19:31:47.610Z,6.40
2018-06-22T19:34:13.974Z,7.07
2018-06-22T19:36:40.331Z,6.47
2018-06-22T19:39:06.655Z,6.23
2018-06-22T19:41:33.128Z,6.23
2018-06-22T19:43:59.501Z,5.90
2018-06-22T19:46:25.828Z,5.83
2018-06-22T19:48:52.165Z,6.60
2018-06-22T19:51:18.530Z,6.13
2018-06-22T19:53:44.865Z,5.97
2018-06-22T19:56:11.201Z,6.50
2018-06-22T19:58:37.572Z,6.37
2018-06-22T20:01:03.939Z,6.10
2018-06-22T20:03:30.265Z,6.00
2018-06-22T20:05:56.581Z,6.77
2018-06-22T20:08:22.924Z,6.50
2018-06-22T20:10:49.256Z,6.30
2018-06-22T20:13:15.587Z,6.20
2018-06-22T20:15:41.913Z,5.97
2018-06-22T20:18:08.251Z,6.93
2018-06-22T20:20:34.567Z,6.10
2018-06-22T20:23:00.941Z,6.30
2018-06-22T20:25:27.313Z,5.80
2018-06-22T20:27:53.691Z,6.20
2018-06-22T20:30:20.055Z,6.10
2018-06-22T20:32:46.516Z,6.50
2018-06-22T20:35:12.860Z,6.00
2018-06-22T20:37:39.244Z,6.90
2018-06-22T20:40:05.667Z,6.10
2018-06-22T20:42:32.010Z,5.53
2018-06-22T20:44:58.381Z,6.20
2018-06-22T20:47:24.819Z,5.73
2018-06-22T20:49:51.150Z,5.80
2018-06-22T20:52:17.498Z,6.23
2018-06-22T20:54:43.840Z,5.13
2018-06-22T20:57:10.196Z,6.33
2018-06-22T20:59:36.571Z,5.80
2018-06-22T21:02:02.926Z,6.03
2018-06-22T21:04:29.290Z,6.67
2018-06-22T21:06:55.617Z,6.00
2018-06-22T21:09:22.015Z,6.50
2018-06-22T21:11:48.399Z,6.73
2018-06-22T21:14:14.773Z,6.97
2018-06-22T21:16:41.093Z,6.50
2018-06-22T21:19:07.507Z,5.90
2018-06-22T21:21:33.844Z,6.77
2018-06-22T21:24:00.209Z,6.50
2018-06-22T21:26:26.548Z,6.57
2018-06-22T21:28:52.894Z,6.50
2018-06-22T21:31:19.255Z,6.10
2018-06-22T21:33:45.578Z,6.90
2018-06-22T21:36:11.920Z,5.20
2018-06-22T21:38:38.246Z,5.67
2018-06-22T21:41:04.635Z,6.90
2018-06-22T21:43:30.963Z,6.70
2018-06-22T21:45:57.308Z,7.10
2018-06-22T21:48:23.699Z,6.13
2018-06-22T21:50:50.078Z,5.87
2018-06-22T21:53:16.437Z,6.07
2018-06-22T21:55:42.771Z,6.00
2018-06-22T21:58:09.196Z,5.90
2018-06-22T22:00:35.631Z,7.10
2018-06-22T22:03:01.989Z,6.40
2018-06-22T22:05:28.314Z,6.60
2018-06-22T22:07:54.642Z,6.33
2018-06-22T22:10:20.981Z,6.40
2018-06-22T22:12:47.330Z,5.90
2018-06-22T22:15:13.684Z,5.47
2018-06-22T22:17:39.994Z,6.40
2018-06-22T22:20:06.513Z,5.70
2018-06-22T22:22:32.881Z,6.43
2018-06-22T22:24:59.221Z,5.30
2018-06-22T22:27:25.588Z,5.07
2018-06-22T22:29:51.906Z,5.63
2018-06-22T22:32:18.279Z,6.27
2018-06-22T22:34:44.610Z,5.57
2018-06-22T22:37:10.972Z,5.77
2018-06-22T22:39:37.316Z,5.67
2018-06-22T22:42:03.640Z,5.70
2018-06-22T22:44:30.035Z,5.57
2018-06-22T22:46:56.397Z,5.50
2018-06-22T22:49:22.826Z,6.00
2018-06-22T22:51:49.134Z,5.63
2018-06-22T22:54:15.463Z,5.67
2018-06-22T22:56:41.792Z,5.93
2018-06-22T22:59:08.154Z,5.73
2018-06-22T23:01:34.588Z,5.83
2018-06-22T23:04:00.921Z,5.53
2018-06-22T23:06:27.307Z,5.17
2018-06-22T23:08:53.740Z,5.40
2018-06-22T23:11:20.081Z,5.90
2018-06-22T23:16:18.708Z,5.70
2018-06-22T23:18:45.037Z,5.67
2018-06-22T23:21:11.394Z,5.03
2018-06-22T23:23:37.775Z,5.30
2018-06-22T23:26:04.234Z,5.37
2018-06-22T23:28:30.558Z,5.77
2018-06-22T23:30:56.997Z,6.00
2018-06-22T23:33:23.361Z,5.50
2018-06-22T23:35:49.696Z,5.53
2018-06-22T23:38:16.011Z,4.80
2018-06-22T23:40:42.361Z,5.40
2018-06-22T23:43:08.802Z,5.30
2018-06-22T23:45:35.255Z,4.80
2018-06-22T23:48:01.576Z,5.30
2018-06-22T23:50:27.955Z,5.57
2018-06-22T23:52:54.276Z,5.10
2018-06-22T23:55:20.679Z,4.93
2018-06-22T23:57:47.031Z,4.83
